createdAt,value
2019-02-21T00:00:30.117Z,74.22
2019-02-21T00:02:59.908Z,73.60
2019-02-21T00:05:29.654Z,73.46
2019-02-21T00:07:59.351Z,73.68
2019-02-21T00:10:29.169Z,73.79
2019-02-21T00:12:58.843Z,74.02
2019-02-21T00:15:28.559Z,74.08
2019-02-21T00:17:58.297Z,74.22
2019-02-21T00:20:28.017Z,74.26
2019-02-21T00:22:57.692Z,74.23
2019-02-21T00:25:27.435Z,74.28
2019-02-21T00:27:57.146Z,74.41
2019-02-21T00:30:34.908Z,74.21
2019-02-21T00:32:58.316Z,74.23
2019-02-21T00:35:28.032Z,74.19
2019-02-21T00:37:57.687Z,74.15
2019-02-21T00:40:27.322Z,74.14
2019-02-21T00:42:57.048Z,74.25
2019-02-21T00:45:26.989Z,74.35
2019-02-21T00:47:56.743Z,74.41
2019-02-21T00:50:26.459Z,74.42
2019-02-21T00:52:56.215Z,74.34
2019-02-21T00:55:27.792Z,74.37
2019-02-21T00:57:57.353Z,74.60
2019-02-21T01:00:27.162Z,74.56
2019-02-21T01:02:56.830Z,74.49
2019-02-21T01:05:26.671Z,74.27
2019-02-21T01:07:56.339Z,74.61
2019-02-21T01:10:26.016Z,74.81
2019-02-21T01:12:55.757Z,74.75
2019-02-21T01:15:25.864Z,74.93
2019-02-21T01:17:55.533Z,75.02
2019-02-21T01:20:25.207Z,75.14
2019-02-21T01:22:54.922Z,75.08
2019-02-21T01:25:24.628Z,75.19
2019-02-21T01:27:54.641Z,75.20
2019-02-21T01:30:24.345Z,75.39
2019-02-21T01:32:54.020Z,75.57
2019-02-21T01:35:23.791Z,75.53
2019-02-21T01:37:53.625Z,75.75
2019-02-21T01:40:23.413Z,75.60
2019-02-21T01:42:53.198Z,75.77
2019-02-21T01:45:22.918Z,75.85
2019-02-21T01:47:52.594Z,75.85
2019-02-21T01:50:22.240Z,75.94
2019-02-21T01:52:51.971Z,75.96
2019-02-21T01:55:21.630Z,75.85
2019-02-21T01:57:51.375Z,75.86
2019-02-21T02:00:21.134Z,75.86
2019-02-21T02:02:50.911Z,75.66
2019-02-21T02:05:20.734Z,75.88
2019-02-21T02:07:50.637Z,75.92
2019-02-21T02:10:20.359Z,75.74
2019-02-21T02:12:50.082Z,75.77
2019-02-21T02:15:19.783Z,75.85
2019-02-21T02:17:49.442Z,75.62
2019-02-21T02:20:19.106Z,75.72
2019-02-21T02:22:48.825Z,75.57
2019-02-21T02:25:18.507Z,75.11
2019-02-21T02:27:48.250Z,75.16
2019-02-21T02:30:17.975Z,75.13
2019-02-21T02:32:47.699Z,75.25
2019-02-21T02:35:19.263Z,75.16
2019-02-21T02:37:48.943Z,75.16
2019-02-21T02:40:18.630Z,75.14
2019-02-21T02:42:48.282Z,75.02
2019-02-21T02:45:17.972Z,75.05
2019-02-21T02:47:47.630Z,74.92
2019-02-21T02:50:17.365Z,75.02
2019-02-21T02:52:47.061Z,74.66
2019-02-21T02:55:16.831Z,75.01
2019-02-21T02:57:46.619Z,75.06
2019-02-21T03:00:16.587Z,75.09
2019-02-21T03:02:46.313Z,74.96
2019-02-21T03:05:16.136Z,74.97
2019-02-21T03:07:45.871Z,75.08
2019-02-21T03:10:15.709Z,75.09
2019-02-21T03:12:45.454Z,75.08
2019-02-21T03:15:15.381Z,74.81
2019-02-21T03:17:45.113Z,75.17
2019-02-21T03:20:14.933Z,75.10
2019-02-21T03:22:44.732Z,75.28
2019-02-21T03:25:14.985Z,75.29
2019-02-21T03:27:44.627Z,75.26
2019-02-21T03:30:14.504Z,75.47
2019-02-21T03:32:44.385Z,75.41
2019-02-21T03:35:14.215Z,75.61
2019-02-21T03:37:43.997Z,75.66
2019-02-21T03:40:13.952Z,75.59
2019-02-21T03:42:43.675Z,75.58
2019-02-21T03:45:15.353Z,75.63
2019-02-21T03:47:45.197Z,75.64
2019-02-21T03:50:15.057Z,75.71
2019-02-21T03:52:44.817Z,75.79
2019-02-21T03:55:14.549Z,75.77
2019-02-21T03:57:44.246Z,75.78
2019-02-21T04:00:14.374Z,75.81
2019-02-21T04:02:44.247Z,75.99
2019-02-21T04:05:14.268Z,76.02
2019-02-21T04:07:44.008Z,76.31
2019-02-21T04:10:13.837Z,76.17
2019-02-21T04:12:43.553Z,76.05
2019-02-21T04:15:14.255Z,76.28
2019-02-21T04:17:43.941Z,76.45
2019-02-21T04:20:13.785Z,76.42
2019-02-21T04:22:43.449Z,76.55
2019-02-21T04:25:13.145Z,76.73
2019-02-21T04:27:42.888Z,76.81
2019-02-21T04:30:12.880Z,77.02
2019-02-21T04:32:42.580Z,76.78
2019-02-21T04:35:12.250Z,76.95
2019-02-21T04:37:41.994Z,77.13
2019-02-21T04:40:11.818Z,77.10
2019-02-21T04:42:41.519Z,77.21
2019-02-21T04:45:11.387Z,77.14
2019-02-21T04:47:41.102Z,77.17
2019-02-21T04:50:10.912Z,77.31
2019-02-21T04:52:40.788Z,77.39
2019-02-21T04:55:10.561Z,77.56
2019-02-21T04:57:40.360Z,77.41
2019-02-21T05:00:13.101Z,77.53
2019-02-21T05:02:42.852Z,77.50
2019-02-21T05:05:12.648Z,77.69
2019-02-21T05:07:42.348Z,77.69
2019-02-21T05:10:12.112Z,77.66
2019-02-21T05:12:41.851Z,77.60
2019-02-21T05:15:13.928Z,77.62
2019-02-21T05:17:43.136Z,77.57
2019-02-21T05:20:12.784Z,77.69
2019-02-21T05:22:42.490Z,77.80
2019-02-21T05:25:12.134Z,77.76
2019-02-21T05:27:44.410Z,77.88
2019-02-21T05:30:15.863Z,78.17
2019-02-21T05:32:47.204Z,78.07
2019-02-21T05:35:18.580Z,78.25
2019-02-21T05:37:49.906Z,78.37
2019-02-21T05:40:28.584Z,78.51
2019-02-21T05:43:12.503Z,78.60
2019-02-21T05:45:46.994Z,78.76
2019-02-21T05:48:30.853Z,78.76
2019-02-21T05:51:13.941Z,78.86
2019-02-21T05:53:45.238Z,78.86
2019-02-21T05:56:16.574Z,79.01
2019-02-21T05:58:53.646Z,79.03
2019-02-21T06:01:25.823Z,79.23
2019-02-21T06:04:05.967Z,79.33
2019-02-21T06:06:40.299Z,79.52
2019-02-21T06:09:14.130Z,79.47
2019-02-21T06:11:48.167Z,79.60
2019-02-21T06:14:35.666Z,79.67
2019-02-21T06:17:13.862Z,79.49
2019-02-21T06:19:43.440Z,79.83
2019-02-21T06:22:32.792Z,79.76
2019-02-21T06:25:06.958Z,79.78
2019-02-21T06:27:43.959Z,79.91
2019-02-21T06:30:21.209Z,80.01
2019-02-21T06:32:50.937Z,80.10
2019-02-21T06:35:20.660Z,80.04
2019-02-21T06:37:50.301Z,79.83
2019-02-21T06:40:20.018Z,79.65
2019-02-21T06:42:49.707Z,79.79
2019-02-21T06:45:19.535Z,79.80
2019-02-21T06:47:49.344Z,79.82
2019-02-21T06:50:26.388Z,79.89
2019-02-21T06:52:50.637Z,79.93
2019-02-21T06:55:20.714Z,79.81
2019-02-21T06:57:50.565Z,79.89
2019-02-21T07:00:20.235Z,79.94
2019-02-21T07:02:50.007Z,79.86
2019-02-21T07:05:19.854Z,79.87
2019-02-21T07:07:49.924Z,79.68
2019-02-21T07:10:19.841Z,79.62
2019-02-21T07:12:49.586Z,79.62
2019-02-21T07:15:19.249Z,79.69
2019-02-21T07:17:49.804Z,79.32
2019-02-21T07:20:19.671Z,79.33
2019-02-21T07:22:49.537Z,79.21
2019-02-21T07:25:20.981Z,78.95
2019-02-21T07:27:50.641Z,78.75
2019-02-21T07:30:23.072Z,78.55
2019-02-21T07:32:51.973Z,78.24
2019-02-21T07:35:21.613Z,78.21
2019-02-21T07:37:53.237Z,77.84
2019-02-21T07:40:22.876Z,77.91
2019-02-21T07:42:52.758Z,77.76
2019-02-21T07:45:22.451Z,77.43
2019-02-21T07:47:52.212Z,77.38
2019-02-21T07:50:23.148Z,77.13
2019-02-21T07:53:32.126Z,76.90
2019-02-21T07:56:01.987Z,76.92
2019-02-21T07:58:31.842Z,76.77
2019-02-21T08:01:02.824Z,76.76
2019-02-21T08:03:43.857Z,76.43
2019-02-21T08:06:04.169Z,76.08
2019-02-21T08:08:34.130Z,75.67
2019-02-21T08:11:03.901Z,75.33
2019-02-21T08:13:33.687Z,74.80
2019-02-21T08:16:03.578Z,74.45
2019-02-21T08:18:33.442Z,74.11
2019-02-21T08:21:03.165Z,73.80
2019-02-21T08:23:33.034Z,73.60
2019-02-21T08:26:02.962Z,73.43
2019-02-21T08:28:32.758Z,73.51
2019-02-21T08:31:02.645Z,73.64
2019-02-21T08:33:34.117Z,73.50
2019-02-21T08:36:03.992Z,73.62
2019-02-21T08:38:33.675Z,73.76
2019-02-21T08:41:03.461Z,73.49
2019-02-21T08:43:33.366Z,73.13
2019-02-21T08:46:03.226Z,73.04
2019-02-21T08:48:33.058Z,73.23
2019-02-21T08:51:03.003Z,73.33
2019-02-21T08:53:32.945Z,73.56
2019-02-21T08:56:02.833Z,73.61
2019-02-21T08:58:32.701Z,73.87
2019-02-21T09:01:02.836Z,74.05
2019-02-21T09:03:32.660Z,74.04
2019-02-21T09:06:02.652Z,73.97
2019-02-21T09:08:35.056Z,73.96
2019-02-21T09:11:04.305Z,74.10
2019-02-21T09:13:34.362Z,73.76
2019-02-21T09:16:04.274Z,73.37
2019-02-21T09:18:34.038Z,73.16
2019-02-21T09:21:03.904Z,72.59
2019-02-21T09:23:33.684Z,72.28
2019-02-21T09:26:03.538Z,71.18
2019-02-21T09:28:33.335Z,70.08
2019-02-21T09:31:03.168Z,69.07
2019-02-21T09:33:32.933Z,68.34
2019-02-21T09:36:02.707Z,67.73
2019-02-21T09:38:34.699Z,67.38
2019-02-21T09:41:04.486Z,67.57
2019-02-21T09:43:34.369Z,67.87
2019-02-21T09:46:04.076Z,67.88
2019-02-21T09:48:38.039Z,68.08
2019-02-21T09:51:07.981Z,68.13
2019-02-21T09:53:37.669Z,68.42
2019-02-21T09:56:07.400Z,68.83
2019-02-21T09:58:37.605Z,69.32
2019-02-21T10:01:07.369Z,69.64
2019-02-21T10:03:37.155Z,69.98
2019-02-21T10:06:08.328Z,70.07
2019-02-21T10:08:38.194Z,70.29
2019-02-21T10:11:08.074Z,70.30
2019-02-21T10:13:37.775Z,70.65
2019-02-21T10:16:07.491Z,70.75
2019-02-21T10:18:37.511Z,71.22
2019-02-21T10:21:07.220Z,71.75
2019-02-21T10:23:37.100Z,71.83
2019-02-21T10:26:11.120Z,72.15
2019-02-21T10:28:40.922Z,72.03
2019-02-21T10:31:10.828Z,71.89
2019-02-21T10:33:47.051Z,71.77
2019-02-21T10:36:12.122Z,71.62
2019-02-21T10:38:50.380Z,71.39
2019-02-21T10:41:20.382Z,71.13
2019-02-21T10:43:50.302Z,70.77
2019-02-21T10:46:20.247Z,70.41
2019-02-21T10:48:50.000Z,69.95
2019-02-21T10:51:19.846Z,69.67
2019-02-21T10:53:49.644Z,69.30
2019-02-21T10:56:19.445Z,69.01
2019-02-21T10:58:49.224Z,68.72
2019-02-21T11:01:19.008Z,68.41
2019-02-21T11:03:48.741Z,68.51
2019-02-21T11:06:18.619Z,68.48
2019-02-21T11:08:48.271Z,68.39
2019-02-21T11:11:18.256Z,68.22
2019-02-21T11:13:47.928Z,68.75
2019-02-21T11:16:17.662Z,68.89
2019-02-21T11:18:47.471Z,69.10
2019-02-21T11:21:18.935Z,68.67
2019-02-21T11:23:48.697Z,67.47
2019-02-21T11:26:18.521Z,66.62
2019-02-21T11:28:55.426Z,66.31
2019-02-21T11:31:27.794Z,65.80
2019-02-21T11:33:56.691Z,65.19
2019-02-21T11:36:26.452Z,63.77
2019-02-21T11:38:56.159Z,62.76
2019-02-21T11:41:25.975Z,61.71
2019-02-21T11:43:55.763Z,61.13
2019-02-21T11:46:25.505Z,60.87
2019-02-21T11:48:55.225Z,61.16
2019-02-21T11:51:24.909Z,60.97
2019-02-21T11:53:54.666Z,61.05
2019-02-21T11:56:24.535Z,60.18
2019-02-21T11:58:54.446Z,60.05
2019-02-21T12:01:24.391Z,59.95
2019-02-21T12:03:54.084Z,60.09
2019-02-21T12:06:24.310Z,60.02
2019-02-21T12:08:54.074Z,59.82
2019-02-21T12:11:23.887Z,59.90
2019-02-21T12:13:53.735Z,60.01
2019-02-21T12:16:23.683Z,60.25
2019-02-21T12:18:53.640Z,60.48
2019-02-21T12:21:23.474Z,60.57
2019-02-21T12:23:53.303Z,59.87
2019-02-21T12:26:23.234Z,59.86
2019-02-21T12:28:53.134Z,60.21
2019-02-21T12:31:22.977Z,60.27
2019-02-21T12:33:53.195Z,60.41
2019-02-21T12:36:23.055Z,60.12
2019-02-21T12:38:52.794Z,59.73
2019-02-21T12:41:22.574Z,59.14
2019-02-21T12:43:52.651Z,58.88
2019-02-21T12:46:22.468Z,58.35
2019-02-21T12:48:52.560Z,58.33
2019-02-21T12:51:22.288Z,57.84
2019-02-21T12:53:51.968Z,58.28
2019-02-21T12:56:21.716Z,58.99
2019-02-21T12:58:52.459Z,59.50
2019-02-21T13:01:22.226Z,60.19
2019-02-21T13:03:52.887Z,60.07
2019-02-21T13:06:22.668Z,60.35
2019-02-21T13:08:52.485Z,60.32
2019-02-21T13:11:22.174Z,60.37
2019-02-21T13:13:52.031Z,60.83
2019-02-21T13:16:21.715Z,61.63
2019-02-21T13:18:51.582Z,63.88
2019-02-21T13:21:21.360Z,65.23
2019-02-21T13:23:51.141Z,66.60
2019-02-21T13:26:20.967Z,66.51
2019-02-21T13:28:50.765Z,66.31
2019-02-21T13:31:20.437Z,66.18
2019-02-21T13:33:50.126Z,66.26
2019-02-21T13:36:19.968Z,66.63
2019-02-21T13:38:49.733Z,66.51
2019-02-21T13:41:19.558Z,66.46
2019-02-21T13:43:49.273Z,66.51
2019-02-21T13:46:19.030Z,66.31
2019-02-21T13:48:48.822Z,65.83
2019-02-21T13:51:18.546Z,66.27
2019-02-21T13:53:48.397Z,65.90
2019-02-21T13:56:18.112Z,66.04
2019-02-21T13:58:47.767Z,65.93
2019-02-21T14:03:56.588Z,66.15
2019-02-21T14:06:26.223Z,65.81
2019-02-21T14:08:55.934Z,65.54
2019-02-21T14:11:25.577Z,65.14
2019-02-21T14:13:55.434Z,67.08
2019-02-21T14:16:25.126Z,66.87
2019-02-21T14:18:54.894Z,65.56
2019-02-21T14:21:24.703Z,64.62
2019-02-21T14:23:54.449Z,64.31
2019-02-21T14:26:24.243Z,64.41
2019-02-21T14:28:54.055Z,64.60
2019-02-21T14:31:23.872Z,64.68
2019-02-21T14:33:53.742Z,64.03
2019-02-21T14:36:24.096Z,64.42
2019-02-21T14:38:53.870Z,64.38
2019-02-21T14:41:23.643Z,64.44
2019-02-21T14:43:53.849Z,64.48
2019-02-21T14:46:23.596Z,64.35
2019-02-21T14:48:53.378Z,64.48
2019-02-21T14:51:23.117Z,64.50
2019-02-21T14:53:52.941Z,64.83
2019-02-21T14:56:22.611Z,64.73
2019-02-21T14:58:52.938Z,64.45
2019-02-21T15:01:22.695Z,64.41
2019-02-21T15:03:52.413Z,64.53
2019-02-21T15:06:27.144Z,64.48
2019-02-21T15:08:53.601Z,64.88
2019-02-21T15:11:23.480Z,67.39
2019-02-21T15:13:53.221Z,64.57
2019-02-21T15:16:23.217Z,65.09
2019-02-21T15:18:55.273Z,64.83
2019-02-21T15:21:24.509Z,64.91
2019-02-21T15:23:54.324Z,64.86
2019-02-21T15:26:24.182Z,65.00
2019-02-21T15:28:54.038Z,64.83
2019-02-21T15:31:25.976Z,65.03
2019-02-21T15:33:55.788Z,65.08
2019-02-21T15:36:25.605Z,64.98
2019-02-21T15:38:55.573Z,65.03
2019-02-21T15:41:25.341Z,64.99
2019-02-21T15:43:54.992Z,64.96
2019-02-21T15:46:24.784Z,64.96
2019-02-21T15:48:54.500Z,65.18
2019-02-21T15:51:25.754Z,65.59
2019-02-21T15:53:55.579Z,65.44
2019-02-21T15:56:26.345Z,65.56
2019-02-21T15:58:56.044Z,65.25
2019-02-21T16:01:26.496Z,65.33
2019-02-21T16:03:56.177Z,65.39
2019-02-21T16:06:25.921Z,65.40
2019-02-21T16:08:55.598Z,65.67
2019-02-21T16:11:25.553Z,65.90
2019-02-21T16:14:03.357Z,66.15
2019-02-21T16:16:27.551Z,66.31
2019-02-21T16:18:58.817Z,66.49
2019-02-21T16:21:29.026Z,66.53
2019-02-21T16:23:58.955Z,66.29
2019-02-21T16:26:28.616Z,66.06
2019-02-21T16:28:58.524Z,66.52
2019-02-21T16:31:28.195Z,66.82
2019-02-21T16:33:58.003Z,66.94
2019-02-21T16:36:27.737Z,67.08
2019-02-21T16:38:57.717Z,66.91
2019-02-21T16:41:36.032Z,67.00
2019-02-21T16:43:58.922Z,66.99
2019-02-21T16:46:29.669Z,66.99
2019-02-21T16:48:59.626Z,66.88
2019-02-21T16:51:29.435Z,66.60
2019-02-21T16:53:59.246Z,66.97
2019-02-21T16:56:28.946Z,67.11
2019-02-21T16:58:58.689Z,67.30
2019-02-21T17:01:29.959Z,66.72
2019-02-21T17:03:59.882Z,67.10
2019-02-21T17:06:29.634Z,67.11
2019-02-21T17:08:59.427Z,66.99
2019-02-21T17:11:29.380Z,67.20
2019-02-21T17:13:59.220Z,67.22
2019-02-21T17:16:28.957Z,67.24
2019-02-21T17:18:58.683Z,67.27
2019-02-21T17:21:28.422Z,67.26
2019-02-21T17:23:58.149Z,67.32
2019-02-21T17:26:27.958Z,67.40
2019-02-21T17:28:57.666Z,67.26
2019-02-21T17:31:27.596Z,67.45
2019-02-21T17:33:57.358Z,67.14
2019-02-21T17:36:29.239Z,67.86
2019-02-21T17:38:59.122Z,67.57
2019-02-21T17:41:28.866Z,67.82
2019-02-21T17:43:58.598Z,68.17
2019-02-21T17:46:28.523Z,68.53
2019-02-21T17:48:58.513Z,69.40
2019-02-21T17:51:28.420Z,70.19
2019-02-21T17:54:00.217Z,70.56
2019-02-21T17:56:29.989Z,71.34
2019-02-21T17:59:00.176Z,71.78
2019-02-21T18:01:29.876Z,72.19
2019-02-21T18:03:59.684Z,72.64
2019-02-21T18:06:29.530Z,72.64
2019-02-21T18:08:59.199Z,72.92
2019-02-21T18:11:29.027Z,73.70
2019-02-21T18:13:58.983Z,74.55
2019-02-21T18:16:28.805Z,75.13
2019-02-21T18:18:58.470Z,75.57
2019-02-21T18:21:28.417Z,75.96
2019-02-21T18:23:58.245Z,76.25
2019-02-21T18:26:32.036Z,76.47
2019-02-21T18:29:02.067Z,76.72
2019-02-21T18:31:32.954Z,76.96
2019-02-21T18:34:13.867Z,77.17
2019-02-21T18:36:43.709Z,77.37
2019-02-21T18:39:13.512Z,77.46
2019-02-21T18:41:44.260Z,77.56
2019-02-21T18:44:13.926Z,77.67
2019-02-21T18:46:43.774Z,77.72
2019-02-21T18:49:13.577Z,77.69
2019-02-21T18:51:43.231Z,77.62
2019-02-21T18:54:12.987Z,77.52
2019-02-21T18:56:42.805Z,77.64
2019-02-21T18:59:12.544Z,77.59
2019-02-21T19:01:42.443Z,77.57
2019-02-21T19:04:12.182Z,76.97
2019-02-21T19:06:41.932Z,76.75
2019-02-21T19:09:11.954Z,76.48
2019-02-21T19:11:41.753Z,76.10
2019-02-21T19:14:11.618Z,76.02
2019-02-21T19:16:57.347Z,76.11
2019-02-21T19:19:27.312Z,76.45
2019-02-21T19:21:57.446Z,76.60
2019-02-21T19:24:27.271Z,76.26
2019-02-21T19:26:57.165Z,76.43
2019-02-21T19:29:27.025Z,76.63
2019-02-21T19:31:56.755Z,76.79
2019-02-21T19:34:26.664Z,76.72
2019-02-21T19:36:56.477Z,76.77
2019-02-21T19:39:26.484Z,76.84
2019-02-21T19:41:56.926Z,76.79
2019-02-21T19:44:26.846Z,76.87
2019-02-21T19:46:56.645Z,76.87
2019-02-21T19:49:26.798Z,76.91
2019-02-21T19:51:57.030Z,76.93
2019-02-21T19:54:26.825Z,76.85
2019-02-21T19:56:56.766Z,76.92
2019-02-21T19:59:26.526Z,76.46
2019-02-21T20:01:56.447Z,76.05
2019-02-21T20:04:26.485Z,76.07
2019-02-21T20:06:56.298Z,76.54
2019-02-21T20:09:26.136Z,76.65
2019-02-21T20:11:55.979Z,76.74
2019-02-21T20:14:26.678Z,77.31
2019-02-21T20:16:56.674Z,77.54
2019-02-21T20:19:26.481Z,78.15
2019-02-21T20:21:56.288Z,78.51
2019-02-21T20:24:26.138Z,79.01
2019-02-21T20:26:55.893Z,79.46
2019-02-21T20:29:25.948Z,79.80
2019-02-21T20:31:55.792Z,80.36
2019-02-21T20:34:25.518Z,80.89
2019-02-21T20:36:55.730Z,81.29
2019-02-21T20:39:25.704Z,81.73
2019-02-21T20:41:55.492Z,81.86
2019-02-21T20:44:25.623Z,81.98
2019-02-21T20:46:55.394Z,82.15
2019-02-21T20:49:25.349Z,82.35
2019-02-21T20:51:56.900Z,82.69
2019-02-21T20:54:31.004Z,82.97
2019-02-21T20:57:02.915Z,83.32
2019-02-21T20:59:32.724Z,83.53
2019-02-21T21:02:02.710Z,83.85
2019-02-21T21:04:32.363Z,83.70
2019-02-21T21:07:02.280Z,84.11
2019-02-21T21:09:32.147Z,84.26
2019-02-21T21:12:02.008Z,84.46
2019-02-21T21:14:31.740Z,84.49
2019-02-21T21:17:01.558Z,84.75
2019-02-21T21:19:31.235Z,85.06
2019-02-21T21:22:00.934Z,85.34
2019-02-21T21:24:30.692Z,85.61
2019-02-21T21:27:00.481Z,85.89
2019-02-21T21:29:30.290Z,86.19
2019-02-21T21:32:00.014Z,86.47
2019-02-21T21:34:29.759Z,86.61
2019-02-21T21:36:59.555Z,86.97
2019-02-21T21:39:29.392Z,86.88
2019-02-21T21:41:59.224Z,86.93
2019-02-21T21:44:28.955Z,86.99
2019-02-21T21:46:58.924Z,87.41
2019-02-21T21:49:28.631Z,87.71
2019-02-21T21:51:58.486Z,87.93
2019-02-21T21:54:28.227Z,88.03
2019-02-21T21:56:58.373Z,88.07
2019-02-21T21:59:28.141Z,88.03
2019-02-21T22:01:57.923Z,88.20
2019-02-21T22:04:27.735Z,88.31
2019-02-21T22:06:57.529Z,88.40
2019-02-21T22:09:27.313Z,88.55
2019-02-21T22:11:57.077Z,88.54
2019-02-21T22:14:26.890Z,88.48
2019-02-21T22:16:56.559Z,88.56
2019-02-21T22:19:26.333Z,88.56
2019-02-21T22:21:56.298Z,88.65
2019-02-21T22:24:26.182Z,88.75
2019-02-21T22:26:56.213Z,88.69
2019-02-21T22:29:25.944Z,88.79
2019-02-21T22:31:55.710Z,88.83
2019-02-21T22:34:25.434Z,88.94
2019-02-21T22:36:55.189Z,88.91
2019-02-21T22:39:25.027Z,88.89
2019-02-21T22:41:54.712Z,88.98
2019-02-21T22:44:24.417Z,88.96
2019-02-21T22:46:54.165Z,88.99
2019-02-21T22:49:23.922Z,88.72
2019-02-21T22:51:53.616Z,88.43
2019-02-21T22:54:23.333Z,88.60
2019-02-21T22:56:53.217Z,88.84
2019-02-21T22:59:22.876Z,88.79
2019-02-21T23:01:54.444Z,88.97
2019-02-21T23:04:28.493Z,89.06
2019-02-21T23:07:23.728Z,89.08
2019-02-21T23:09:53.446Z,89.20
2019-02-21T23:12:23.186Z,89.24
2019-02-21T23:14:52.998Z,89.17
2019-02-21T23:17:22.925Z,89.10
2019-02-21T23:19:52.585Z,88.91
2019-02-21T23:22:22.441Z,89.10
2019-02-21T23:24:52.161Z,89.20
2019-02-21T23:27:22.301Z,89.19
2019-02-21T23:29:52.107Z,88.98
2019-02-21T23:32:21.836Z,89.05
2019-02-21T23:34:52.497Z,89.18
2019-02-21T23:37:22.551Z,89.27
2019-02-21T23:39:52.601Z,89.17
2019-02-21T23:42:22.438Z,89.22
2019-02-21T23:44:52.147Z,89.30
2019-02-21T23:47:21.950Z,89.39
2019-02-21T23:49:51.714Z,89.41
2019-02-21T23:52:21.503Z,89.40
2019-02-21T23:54:51.329Z,89.40
2019-02-21T23:57:21.020Z,89.46
2019-02-21T23:59:50.804Z,89.54
